createdAt,value
2022-12-19T00:00:37.846Z,42.57
2022-12-19T00:03:06.225Z,42.97
2022-12-19T00:05:39.787Z,43.07
2022-12-19T00:08:16.970Z,41.30
2022-12-19T00:10:54.882Z,42.17
2022-12-19T00:13:23.332Z,41.03
2022-12-19T00:15:51.678Z,42.40
2022-12-19T00:18:20.332Z,41.40
2022-12-19T00:20:58.853Z,41.27
2022-12-19T00:23:28.910Z,41.43
2022-12-19T00:25:57.470Z,41.28
2022-12-19T00:28:27.164Z,39.90
2022-12-19T00:30:55.422Z,41.60
2022-12-19T00:33:24.943Z,41.23
2022-12-19T00:36:00.421Z,40.97
2022-12-19T00:38:30.008Z,40.07
2022-12-19T00:41:08.505Z,41.38
2022-12-19T00:43:37.592Z,41.47
2022-12-19T00:46:09.800Z,42.03
2022-12-19T00:48:38.264Z,41.40
2022-12-19T00:51:11.911Z,40.63
2022-12-19T00:53:44.189Z,41.73
2022-12-19T00:56:16.381Z,41.87
2022-12-19T00:58:47.252Z,42.53
2022-12-19T01:01:20.371Z,40.90
2022-12-19T01:04:19.137Z,41.80
2022-12-19T01:06:39.535Z,39.97
2022-12-19T01:09:09.874Z,40.90
2022-12-19T01:11:55.747Z,43.17
2022-12-19T01:14:24.784Z,41.67
2022-12-19T01:16:53.532Z,39.37
2022-12-19T01:19:21.929Z,42.73
2022-12-19T01:21:51.603Z,41.33
2022-12-19T01:24:20.701Z,41.22
2022-12-19T01:26:51.236Z,40.07
2022-12-19T01:29:19.643Z,39.83
2022-12-19T01:31:49.397Z,40.42
2022-12-19T01:34:17.775Z,38.53
2022-12-19T01:36:46.093Z,40.00
2022-12-19T01:39:15.749Z,37.38
2022-12-19T01:41:44.068Z,40.17
2022-12-19T01:44:12.379Z,40.03
2022-12-19T01:46:45.350Z,38.30
2022-12-19T01:49:17.907Z,37.50
2022-12-19T01:51:52.311Z,37.55
2022-12-19T01:54:27.089Z,36.85
2022-12-19T01:57:00.076Z,37.70
2022-12-19T01:59:35.467Z,38.00
2022-12-19T02:02:11.802Z,38.67
2022-12-19T02:04:41.977Z,38.90
2022-12-19T02:07:15.746Z,36.70
2022-12-19T02:09:51.923Z,38.50
2022-12-19T02:12:30.855Z,39.00
2022-12-19T02:15:03.112Z,37.27
2022-12-19T02:17:48.793Z,37.37
2022-12-19T02:21:04.314Z,36.90
2022-12-19T02:24:13.374Z,36.08
2022-12-19T02:27:15.602Z,35.08
2022-12-19T02:30:10.349Z,33.08
2022-12-19T02:32:57.812Z,33.55
2022-12-19T02:35:36.336Z,32.38
2022-12-19T02:38:16.584Z,29.97
2022-12-19T02:40:55.561Z,30.33
2022-12-19T02:43:29.221Z,28.07
2022-12-19T02:45:58.978Z,28.75
2022-12-19T02:48:29.648Z,28.73
2022-12-19T02:50:59.651Z,26.50
2022-12-19T02:53:27.980Z,27.15
2022-12-19T02:56:26.449Z,24.20
2022-12-19T02:59:19.878Z,26.73
2022-12-19T03:01:54.351Z,24.48
2022-12-19T03:04:38.908Z,25.42
2022-12-19T03:07:15.869Z,23.95
2022-12-19T03:09:53.157Z,23.10
2022-12-19T03:12:28.243Z,23.58
2022-12-19T03:14:59.829Z,23.45
2022-12-19T03:17:29.283Z,22.73
2022-12-19T03:19:59.836Z,20.90
2022-12-19T03:24:56.306Z,19.48
2022-12-19T03:27:30.562Z,19.27
2022-12-19T03:30:06.113Z,18.35
2022-12-19T03:32:37.968Z,17.40
2022-12-19T03:35:14.129Z,17.08
2022-12-19T03:37:44.103Z,16.70
2022-12-19T03:40:18.185Z,17.98
2022-12-19T03:43:06.744Z,17.10
2022-12-19T03:45:46.872Z,17.63
2022-12-19T03:48:21.392Z,17.50
2022-12-19T03:51:10.767Z,18.60
2022-12-19T03:53:49.619Z,17.42
2022-12-19T03:56:27.541Z,17.33
2022-12-19T03:59:02.672Z,17.92
2022-12-19T04:01:35.392Z,18.25
2022-12-19T04:04:06.293Z,17.90
2022-12-19T04:06:37.304Z,17.35
2022-12-19T04:09:06.710Z,17.17
2022-12-19T04:11:42.740Z,17.58
2022-12-19T04:14:17.145Z,18.40
2022-12-19T04:16:51.909Z,18.00
2022-12-19T04:19:27.249Z,17.65
2022-12-19T04:22:05.997Z,18.65
2022-12-19T04:24:39.113Z,16.13
2022-12-19T04:27:09.824Z,16.20
2022-12-19T04:32:09.524Z,15.73
2022-12-19T04:34:41.507Z,15.50
2022-12-19T04:37:14.203Z,15.35
2022-12-19T04:39:42.658Z,17.33
2022-12-19T04:42:10.939Z,16.90
2022-12-19T04:44:39.342Z,17.13
2022-12-19T04:47:07.626Z,17.45
2022-12-19T04:49:35.953Z,17.88
2022-12-19T04:52:04.372Z,19.45
2022-12-19T04:54:35.207Z,18.73
2022-12-19T04:57:03.543Z,19.38
2022-12-19T04:59:32.480Z,18.15
2022-12-19T05:02:01.033Z,18.73
2022-12-19T05:04:29.431Z,18.10
2022-12-19T05:06:57.743Z,18.38
2022-12-19T05:09:27.297Z,20.55
2022-12-19T05:11:56.953Z,19.50
2022-12-19T05:14:25.482Z,20.05
2022-12-19T05:16:57.344Z,20.27
2022-12-19T05:19:29.137Z,19.35
2022-12-19T05:21:57.464Z,19.45
2022-12-19T05:24:25.891Z,18.52
2022-12-19T05:26:54.228Z,19.55
2022-12-19T05:29:24.075Z,19.02
2022-12-19T05:31:52.345Z,19.08
2022-12-19T05:34:20.875Z,18.92
2022-12-19T05:36:49.246Z,17.80
2022-12-19T05:39:17.785Z,18.60
2022-12-19T05:41:48.943Z,19.23
2022-12-19T05:44:18.504Z,18.17
2022-12-19T05:46:48.273Z,18.77
2022-12-19T05:49:16.838Z,18.92
2022-12-19T05:51:48.188Z,18.77
2022-12-19T05:54:16.785Z,18.90
2022-12-19T05:56:45.051Z,18.35
2022-12-19T05:59:13.436Z,19.20
2022-12-19T06:01:41.717Z,18.52
2022-12-19T06:04:11.515Z,18.60
2022-12-19T06:06:39.775Z,19.47
2022-12-19T06:09:08.262Z,18.17
2022-12-19T06:11:36.513Z,18.60
2022-12-19T06:14:04.887Z,17.65
2022-12-19T06:16:33.168Z,17.83
2022-12-19T06:19:01.557Z,19.00
2022-12-19T06:21:31.227Z,18.08
2022-12-19T06:23:59.569Z,18.30
2022-12-19T06:26:27.937Z,18.42
2022-12-19T06:28:57.229Z,18.23
2022-12-19T06:31:26.930Z,17.52
2022-12-19T06:33:56.854Z,16.02
2022-12-19T06:36:27.914Z,17.67
2022-12-19T06:38:59.155Z,17.15
2022-12-19T06:41:45.350Z,15.88
2022-12-19T06:44:16.204Z,15.45
2022-12-19T06:46:45.488Z,16.10
2022-12-19T06:49:14.069Z,15.52
2022-12-19T06:51:42.766Z,14.63
2022-12-19T06:54:13.277Z,15.30
2022-12-19T06:56:43.910Z,14.55
2022-12-19T06:59:15.948Z,14.93
2022-12-19T07:01:58.601Z,14.95
2022-12-19T07:04:32.638Z,14.57
2022-12-19T07:07:01.831Z,14.43
2022-12-19T07:09:33.896Z,14.07
2022-12-19T07:12:03.165Z,13.60
2022-12-19T07:14:31.544Z,13.80
2022-12-19T07:17:02.110Z,14.18
2022-12-19T07:19:32.218Z,14.55
2022-12-19T07:22:02.085Z,14.27
2022-12-19T07:24:32.161Z,12.82
2022-12-19T07:27:00.569Z,13.43
2022-12-19T07:29:28.913Z,13.27
2022-12-19T07:31:57.300Z,13.07
2022-12-19T07:34:25.674Z,13.63
2022-12-19T07:36:53.930Z,13.45
2022-12-19T07:39:22.924Z,13.00
2022-12-19T07:41:52.574Z,13.00
2022-12-19T07:44:31.492Z,12.38
2022-12-19T07:46:59.750Z,13.73
2022-12-19T07:49:27.989Z,13.20
2022-12-19T07:51:56.375Z,13.57
2022-12-19T07:54:24.678Z,13.02
2022-12-19T07:56:54.439Z,12.80
2022-12-19T07:59:28.912Z,12.77
2022-12-19T08:01:58.945Z,12.50
2022-12-19T08:04:27.711Z,12.25
2022-12-19T08:06:56.114Z,13.35
2022-12-19T08:09:27.647Z,12.32
2022-12-19T08:11:57.782Z,13.13
2022-12-19T08:14:26.134Z,12.80
2022-12-19T08:17:19.702Z,12.48
2022-12-19T08:19:42.898Z,12.88
2022-12-19T08:22:11.242Z,12.88
2022-12-19T08:24:39.543Z,12.73
2022-12-19T08:27:09.240Z,12.80
2022-12-19T08:29:37.623Z,12.77
2022-12-19T08:32:06.305Z,12.65
2022-12-19T08:34:34.797Z,12.95
2022-12-19T08:37:03.054Z,12.85
2022-12-19T08:39:31.441Z,13.55
2022-12-19T08:41:59.838Z,12.75
2022-12-19T08:44:29.538Z,13.85
2022-12-19T08:46:57.904Z,12.73
2022-12-19T08:49:26.548Z,12.15
2022-12-19T08:51:54.865Z,11.50
2022-12-19T08:54:23.213Z,11.63
2022-12-19T08:56:51.982Z,12.65
2022-12-19T08:59:25.579Z,12.00
2022-12-19T09:02:01.687Z,11.95
2022-12-19T09:06:01.889Z,12.40
2022-12-19T09:07:19.703Z,11.55
2022-12-19T09:09:48.058Z,11.45
2022-12-19T09:12:17.488Z,12.07
2022-12-19T09:14:46.267Z,12.30
2022-12-19T09:17:16.042Z,10.88
2022-12-19T09:19:47.638Z,11.82
2022-12-19T09:22:17.711Z,11.45
2022-12-19T09:24:49.124Z,11.57
2022-12-19T09:27:17.555Z,12.40
2022-12-19T09:29:46.045Z,11.60
2022-12-19T09:32:15.753Z,11.52
2022-12-19T09:34:44.053Z,11.00
2022-12-19T09:37:16.676Z,12.20
2022-12-19T09:39:46.862Z,12.10
2022-12-19T09:42:30.036Z,11.77
2022-12-19T09:45:31.252Z,12.07
2022-12-19T09:48:05.758Z,12.10
2022-12-19T09:50:47.772Z,11.77
2022-12-19T09:53:23.121Z,11.48
2022-12-19T09:55:54.900Z,11.07
2022-12-19T09:58:37.209Z,12.13
2022-12-19T10:01:17.138Z,10.25
2022-12-19T10:03:55.166Z,11.63
2022-12-19T10:07:07.007Z,10.70
2022-12-19T10:10:54.710Z,10.50
2022-12-19T10:12:43.075Z,10.55
2022-12-19T10:15:22.438Z,10.38
2022-12-19T10:18:16.627Z,10.05
2022-12-19T10:20:51.452Z,10.48
2022-12-19T10:23:50.461Z,10.85
2022-12-19T10:26:21.853Z,10.20
2022-12-19T10:29:30.067Z,9.80
2022-12-19T10:32:05.297Z,9.00
2022-12-19T10:34:39.812Z,10.10
2022-12-19T10:37:25.729Z,9.77
2022-12-19T10:40:11.241Z,9.82
2022-12-19T10:42:51.917Z,9.70
2022-12-19T10:45:23.371Z,9.63
2022-12-19T10:47:57.404Z,9.98
2022-12-19T10:50:29.510Z,10.35
2022-12-19T10:53:11.188Z,9.75
2022-12-19T10:55:44.919Z,8.82
2022-12-19T10:58:22.857Z,9.13
2022-12-19T11:01:06.939Z,9.02
2022-12-19T11:03:36.170Z,9.23
2022-12-19T11:06:06.249Z,9.98
2022-12-19T11:08:38.082Z,9.48
2022-12-19T11:13:11.905Z,9.27
2022-12-19T11:19:17.854Z,9.25
2022-12-19T11:20:39.179Z,9.25
2022-12-19T11:29:18.200Z,9.00
2022-12-19T11:29:34.804Z,9.02
2022-12-19T11:29:34.919Z,9.15
2022-12-19T11:30:59.587Z,9.13
2022-12-19T11:32:35.825Z,10.27
2022-12-19T11:34:51.433Z,9.63
2022-12-19T11:37:26.851Z,9.68
2022-12-19T11:40:01.001Z,10.13
2022-12-19T11:42:36.545Z,10.32
2022-12-19T11:45:14.503Z,9.85
2022-12-19T11:47:49.765Z,9.68
2022-12-19T11:50:24.173Z,9.90
2022-12-19T11:53:05.139Z,10.13
2022-12-19T11:55:45.073Z,10.75
2022-12-19T11:58:15.638Z,9.43
2022-12-19T12:00:54.247Z,10.65
2022-12-19T12:04:01.908Z,10.68
2022-12-19T12:06:35.646Z,10.48
2022-12-19T12:11:42.620Z,9.70
2022-12-19T12:19:08.584Z,10.10
2022-12-19T12:26:37.387Z,10.45
2022-12-19T12:31:00.316Z,10.30
2022-12-19T12:31:08.448Z,10.05
2022-12-19T12:31:39.471Z,9.90
2022-12-19T12:31:45.110Z,10.35
2022-12-19T12:31:49.683Z,9.73
2022-12-19T12:35:38.337Z,9.00
2022-12-19T12:39:44.088Z,9.63
2022-12-19T12:42:29.128Z,9.15
2022-12-19T12:45:00.287Z,9.65
2022-12-19T12:47:30.313Z,9.13
2022-12-19T12:50:02.955Z,8.63
2022-12-19T12:52:37.154Z,9.05
2022-12-19T12:55:13.816Z,8.45
2022-12-19T12:57:42.341Z,9.10
2022-12-19T13:00:24.842Z,9.15
2022-12-19T13:03:03.587Z,9.27
2022-12-19T13:05:41.521Z,8.95
2022-12-19T13:08:38.203Z,8.43
2022-12-19T13:11:12.200Z,9.07
2022-12-19T13:13:53.215Z,8.63
2022-12-19T13:16:52.907Z,8.75
2022-12-19T13:19:28.846Z,8.52
2022-12-19T13:22:37.954Z,9.25
2022-12-19T13:25:52.536Z,7.88
2022-12-19T13:28:41.742Z,8.23
2022-12-19T13:31:23.298Z,8.40
2022-12-19T13:34:25.125Z,8.30
2022-12-19T13:39:47.982Z,9.07
2022-12-19T13:40:18.463Z,8.32
2022-12-19T13:43:18.858Z,8.23
2022-12-19T13:45:53.853Z,8.60
2022-12-19T13:48:32.109Z,7.97
2022-12-19T13:51:07.147Z,7.65
2022-12-19T13:53:36.770Z,7.75
2022-12-19T13:56:12.905Z,7.85
2022-12-19T13:58:48.741Z,8.27
2022-12-19T14:01:23.270Z,7.63
2022-12-19T14:03:55.473Z,7.43
2022-12-19T14:06:29.040Z,7.28
2022-12-19T14:11:26.423Z,7.75
2022-12-19T14:13:35.644Z,7.00
2022-12-19T14:15:12.916Z,7.22
2022-12-19T14:17:48.793Z,7.68
2022-12-19T14:22:02.299Z,7.07
2022-12-19T14:23:12.362Z,7.45
2022-12-19T14:28:18.423Z,7.38
2022-12-19T14:28:44.597Z,7.57
2022-12-19T14:31:19.018Z,7.18
2022-12-19T14:36:41.718Z,6.93
2022-12-19T14:39:18.676Z,7.38
2022-12-19T14:42:20.447Z,7.35
2022-12-19T14:54:15.169Z,7.28
2022-12-19T14:54:15.865Z,6.90
2022-12-19T14:54:28.660Z,6.95
2022-12-19T14:57:28.971Z,7.50
2022-12-19T15:01:09.123Z,7.10
2022-12-19T15:03:22.913Z,7.25
2022-12-19T15:05:51.927Z,6.88
2022-12-19T15:09:50.576Z,6.72
2022-12-19T15:12:06.198Z,7.55
2022-12-19T15:14:53.787Z,7.50
2022-12-19T15:17:28.420Z,7.47
2022-12-19T15:19:56.846Z,6.97
2022-12-19T15:22:25.136Z,7.22
2022-12-19T15:24:54.263Z,7.95
2022-12-19T15:27:24.293Z,7.22
2022-12-19T15:29:53.057Z,7.30
2022-12-19T15:32:21.479Z,6.72
2022-12-19T15:34:51.644Z,7.80
2022-12-19T15:37:20.460Z,7.85
2022-12-19T15:39:49.009Z,8.30
2022-12-19T15:42:24.559Z,7.72
2022-12-19T15:44:55.763Z,6.88
2022-12-19T15:47:32.927Z,7.22
2022-12-19T15:50:06.702Z,7.20
2022-12-19T15:52:35.057Z,7.70
2022-12-19T15:55:03.350Z,7.65
2022-12-19T15:57:37.798Z,7.55
2022-12-19T16:00:12.865Z,7.53
2022-12-19T16:05:30.185Z,7.38
2022-12-19T16:07:58.989Z,7.88
2022-12-19T16:10:27.856Z,7.82
2022-12-19T16:12:58.536Z,7.30
2022-12-19T16:20:30.575Z,7.70
2022-12-19T16:22:59.377Z,7.32
2022-12-19T16:25:35.039Z,7.28
2022-12-19T16:28:07.326Z,7.30
2022-12-19T16:30:36.591Z,7.55
2022-12-19T16:33:18.674Z,7.50
2022-12-19T16:36:04.661Z,7.45
2022-12-19T16:38:34.349Z,7.03
2022-12-19T16:41:02.958Z,7.80
2022-12-19T16:43:36.945Z,7.05
2022-12-19T16:46:08.687Z,7.15
2022-12-19T16:48:37.085Z,7.07
2022-12-19T16:51:05.660Z,7.60
2022-12-19T16:53:34.537Z,7.35
2022-12-19T16:56:04.751Z,7.20
2022-12-19T16:58:39.618Z,7.88
2022-12-19T17:01:11.858Z,7.30
2022-12-19T17:03:42.787Z,7.43
2022-12-19T17:06:13.893Z,7.60
2022-12-19T17:08:42.458Z,7.25
2022-12-19T17:11:20.390Z,7.25
2022-12-19T17:13:53.237Z,6.97
2022-12-19T17:16:21.719Z,7.97
2022-12-19T17:18:50.222Z,7.20
2022-12-19T17:21:21.565Z,7.78
2022-12-19T17:23:50.301Z,7.60
2022-12-19T17:26:19.243Z,7.15
2022-12-19T17:28:49.377Z,7.70
2022-12-19T17:31:23.771Z,7.22
2022-12-19T17:33:53.036Z,7.13
2022-12-19T17:36:26.091Z,7.70
2022-12-19T17:38:56.115Z,7.72
2022-12-19T17:41:25.497Z,7.40
2022-12-19T17:43:55.230Z,7.38
2022-12-19T17:46:25.661Z,6.82
2022-12-19T17:48:55.239Z,7.68
2022-12-19T17:51:24.725Z,7.75
2022-12-19T17:53:53.045Z,8.25
2022-12-19T17:56:22.216Z,7.97
2022-12-19T17:58:50.752Z,7.50
2022-12-19T18:01:24.336Z,7.38
2022-12-19T18:03:56.105Z,7.75
2022-12-19T18:06:24.460Z,7.50
2022-12-19T18:08:52.801Z,7.22
2022-12-19T18:11:23.997Z,7.35
2022-12-19T18:13:53.562Z,7.72
2022-12-19T18:16:27.364Z,7.07
2022-12-19T18:18:56.444Z,7.50
2022-12-19T18:21:25.089Z,8.20
2022-12-19T18:23:53.617Z,8.45
2022-12-19T18:26:22.279Z,8.60
2022-12-19T18:28:50.602Z,8.23
2022-12-19T18:31:25.499Z,7.93
2022-12-19T18:34:02.038Z,7.63
2022-12-19T18:36:41.187Z,7.80
2022-12-19T18:39:21.035Z,7.68
2022-12-19T18:41:50.174Z,7.33
2022-12-19T18:44:18.734Z,7.95
2022-12-19T18:46:50.813Z,7.97
2022-12-19T18:49:19.892Z,7.95
2022-12-19T18:51:50.150Z,8.00
2022-12-19T18:54:22.511Z,7.13
2022-12-19T18:56:55.427Z,8.10
2022-12-19T18:59:23.965Z,8.15
2022-12-19T19:01:55.588Z,7.38
2022-12-19T19:04:24.126Z,8.32
2022-12-19T19:06:55.146Z,8.20
2022-12-19T19:09:24.110Z,8.13
2022-12-19T19:12:34.293Z,8.18
2022-12-19T19:15:03.116Z,7.97
2022-12-19T19:17:32.770Z,8.13
2022-12-19T19:20:01.417Z,7.80
2022-12-19T19:22:33.991Z,7.78
2022-12-19T19:25:02.530Z,8.38
2022-12-19T19:27:30.967Z,8.02
2022-12-19T19:30:00.251Z,7.75
2022-12-19T19:32:28.833Z,8.05
2022-12-19T19:34:59.613Z,8.75
2022-12-19T19:39:57.268Z,8.68
2022-12-19T19:42:25.586Z,9.25
2022-12-19T19:44:54.025Z,8.90
2022-12-19T19:47:27.173Z,8.27
2022-12-19T19:49:58.325Z,7.95
2022-12-19T19:52:26.691Z,7.82
2022-12-19T19:54:55.108Z,7.95
2022-12-19T19:57:23.781Z,8.32
2022-12-19T19:59:52.559Z,8.38
2022-12-19T20:02:24.280Z,8.40
2022-12-19T20:04:52.794Z,8.50
2022-12-19T20:07:25.522Z,8.30
2022-12-19T20:09:54.786Z,8.45
2022-12-19T20:12:26.258Z,8.27
2022-12-19T20:14:54.706Z,8.82
2022-12-19T20:17:23.117Z,8.32
2022-12-19T20:19:51.612Z,7.95
2022-12-19T20:22:20.006Z,8.73
2022-12-19T20:24:49.766Z,8.77
2022-12-19T20:27:20.855Z,8.60
2022-12-19T20:29:49.151Z,9.23
2022-12-19T20:32:17.631Z,8.98
2022-12-19T20:34:46.715Z,9.20
2022-12-19T20:37:16.045Z,8.45
2022-12-19T20:39:44.864Z,8.07
2022-12-19T20:42:14.672Z,9.43
2022-12-19T20:44:43.014Z,8.70
2022-12-19T20:47:11.313Z,8.85
2022-12-19T20:49:39.973Z,9.20
2022-12-19T20:52:08.388Z,9.32
2022-12-19T20:54:36.976Z,8.85
2022-12-19T20:57:05.703Z,7.88
2022-12-19T20:59:35.482Z,8.10
2022-12-19T21:02:03.936Z,8.40
2022-12-19T21:04:32.567Z,8.68
2022-12-19T21:07:01.063Z,8.15
2022-12-19T21:09:29.519Z,8.45
2022-12-19T21:11:58.164Z,8.48
2022-12-19T21:14:26.457Z,8.75
2022-12-19T21:16:56.235Z,8.10
2022-12-19T21:19:24.719Z,7.60
2022-12-19T21:21:53.437Z,7.95
2022-12-19T21:24:21.996Z,7.70
2022-12-19T21:26:57.670Z,8.40
2022-12-19T21:29:26.816Z,8.23
2022-12-19T21:31:56.559Z,8.00
2022-12-19T21:34:25.186Z,8.03
2022-12-19T21:36:53.578Z,8.82
2022-12-19T21:39:25.538Z,8.23
2022-12-19T21:41:53.984Z,8.73
2022-12-19T21:44:22.273Z,8.27
2022-12-19T21:46:50.932Z,8.23
2022-12-19T21:49:21.095Z,8.30
2022-12-19T21:51:49.516Z,8.18
2022-12-19T21:54:17.942Z,8.30
2022-12-19T21:56:49.160Z,7.80
2022-12-19T21:59:20.583Z,8.13
2022-12-19T22:01:49.189Z,8.23
2022-12-19T22:04:22.041Z,8.15
2022-12-19T22:06:52.008Z,8.25
2022-12-19T22:09:23.419Z,8.13
2022-12-19T22:11:51.978Z,8.57
2022-12-19T22:14:22.655Z,8.55
2022-12-19T22:19:21.805Z,8.35
2022-12-19T22:21:50.305Z,9.10
2022-12-19T22:24:20.086Z,8.20
2022-12-19T22:26:48.614Z,7.90
2022-12-19T22:29:20.501Z,7.47
2022-12-19T22:31:50.652Z,8.35
2022-12-19T22:34:22.544Z,7.60
2022-12-19T22:36:52.953Z,8.60
2022-12-19T22:39:23.063Z,8.43
2022-12-19T22:41:52.086Z,7.80
2022-12-19T22:44:23.172Z,7.43
2022-12-19T22:46:52.296Z,7.85
2022-12-19T22:49:21.965Z,7.47
2022-12-19T22:51:50.381Z,7.57
2022-12-19T22:54:18.769Z,7.88
2022-12-19T22:56:47.256Z,7.50
2022-12-19T22:59:15.580Z,7.57
2022-12-19T23:01:44.909Z,8.20
2022-12-19T23:04:15.741Z,7.47
2022-12-19T23:06:45.821Z,7.53
2022-12-19T23:09:17.709Z,6.95
2022-12-19T23:11:50.107Z,6.97
2022-12-19T23:14:20.906Z,6.97
2022-12-19T23:19:18.639Z,7.03
2022-12-19T23:21:48.581Z,7.40
2022-12-19T23:24:17.137Z,7.45
2022-12-19T23:26:45.836Z,7.20
2022-12-19T23:29:16.462Z,6.97
2022-12-19T23:31:47.322Z,7.45
2022-12-19T23:34:16.909Z,7.05
2022-12-19T23:39:35.758Z,7.17
2022-12-19T23:42:04.225Z,6.65
2022-12-19T23:44:32.680Z,7.18
2022-12-19T23:47:03.409Z,7.00
2022-12-19T23:49:33.431Z,7.25
2022-12-19T23:52:03.255Z,6.47
2022-12-19T23:54:31.595Z,6.57
2022-12-19T23:56:59.850Z,6.72
2022-12-19T23:59:28.485Z,7.10
